createdAt,value
2017-11-10T00:02:34.944Z,7.67
2017-11-10T00:17:34.826Z,7.73
2017-11-10T00:32:34.286Z,7.93
2017-11-10T00:47:34.180Z,8.04
2017-11-10T01:02:34.096Z,8.10
2017-11-10T01:17:38.094Z,8.03
2017-11-10T01:32:35.026Z,8.10
2017-11-10T01:47:34.400Z,8.10
2017-11-10T02:02:34.335Z,8.12
2017-11-10T02:17:36.278Z,8.08
2017-11-10T02:32:37.270Z,8.03
2017-11-10T02:47:34.690Z,7.99
2017-11-10T03:02:39.614Z,7.98
2017-11-10T03:17:36.477Z,7.81
2017-11-10T03:32:36.420Z,7.82
2017-11-10T03:47:34.876Z,7.88
2017-11-10T04:02:34.829Z,8.03
2017-11-10T04:17:34.729Z,8.12
2017-11-10T04:32:36.662Z,8.15
2017-11-10T04:47:34.111Z,8.09
2017-11-10T05:02:37.034Z,8.14
2017-11-10T05:17:34.973Z,8.25
2017-11-10T05:32:34.952Z,8.20
2017-11-10T05:47:34.326Z,8.26
2017-11-10T06:02:34.405Z,8.35
2017-11-10T06:17:34.243Z,8.39
2017-11-10T06:32:36.718Z,8.48
2017-11-10T06:47:35.603Z,8.69
2017-11-10T07:02:34.527Z,8.82
2017-11-10T07:17:35.430Z,9.16
2017-11-10T07:32:34.847Z,9.44
2017-11-10T07:47:34.788Z,9.74
2017-11-10T08:02:34.713Z,9.91
2017-11-10T08:17:35.195Z,10.22
2017-11-10T08:32:35.119Z,10.71
2017-11-10T08:47:34.985Z,11.20
2017-11-10T09:02:34.442Z,11.85
2017-11-10T09:17:34.440Z,12.17
2017-11-10T09:32:41.544Z,12.24
2017-11-10T09:47:42.855Z,12.49
2017-11-10T10:02:40.738Z,12.62
2017-11-10T10:17:45.018Z,12.90
2017-11-10T10:32:34.506Z,12.64
2017-11-10T10:47:35.420Z,12.36
2017-11-10T11:02:35.338Z,12.22
2017-11-10T11:17:35.314Z,12.33
2017-11-10T11:32:34.787Z,12.48
2017-11-10T11:47:34.640Z,12.84
2017-11-10T12:02:34.639Z,13.51
2017-11-10T12:17:34.546Z,13.57
2017-11-10T12:32:34.986Z,13.53
2017-11-10T12:47:34.915Z,13.53
2017-11-10T13:02:34.858Z,13.29
2017-11-10T13:17:36.071Z,13.35
2017-11-10T13:32:35.125Z,13.39
2017-11-10T13:47:35.055Z,13.35
2017-11-10T14:02:36.994Z,13.25
2017-11-10T14:17:35.940Z,13.16
2017-11-10T14:32:35.397Z,13.02
2017-11-10T14:47:35.301Z,12.76
2017-11-10T15:02:35.262Z,12.50
2017-11-10T15:17:37.207Z,12.31
2017-11-10T15:32:34.564Z,12.08
2017-11-10T15:47:34.723Z,11.89
2017-11-10T16:02:36.435Z,11.72
2017-11-10T16:17:35.345Z,11.50
2017-11-10T16:32:34.281Z,11.26
2017-11-10T16:47:34.807Z,11.08
2017-11-10T17:02:34.638Z,10.92
2017-11-10T17:17:34.637Z,10.74
2017-11-10T17:32:35.041Z,10.42
2017-11-10T17:47:37.002Z,10.14
2017-11-10T18:02:36.974Z,9.87
2017-11-10T18:17:36.814Z,9.65
2017-11-10T18:32:37.243Z,9.42
2017-11-10T18:47:35.237Z,9.24
2017-11-10T19:02:35.026Z,9.04
2017-11-10T19:17:35.034Z,8.85
2017-11-10T19:32:34.509Z,8.76
2017-11-10T19:47:39.419Z,8.68
2017-11-10T20:02:35.357Z,8.61
2017-11-10T20:17:35.356Z,8.53
2017-11-10T20:32:34.734Z,8.48
2017-11-10T20:47:34.676Z,8.41
2017-11-10T21:02:34.641Z,8.32
2017-11-10T21:17:35.000Z,8.27
2017-11-10T21:32:34.995Z,8.21
2017-11-10T21:47:34.877Z,8.18
2017-11-10T22:02:36.881Z,8.09
2017-11-10T22:17:34.760Z,7.96
2017-11-10T22:32:35.161Z,7.97
2017-11-10T22:47:35.088Z,7.89
2017-11-10T23:02:35.028Z,7.85
2017-11-10T23:17:34.520Z,7.81
2017-11-10T23:32:34.462Z,7.70
2017-11-10T23:47:35.408Z,7.69
